Time;durP1;ratioP1;P1;durP2;ratioP2;P2;SDS_P1;SDS_P2;PMS_P1;PMS_P2;Temp;Humidity;BMP_temperature;BMP_pressure;BME280_temperature;BME280_humidity;BME280_pressure;Samples;Min_cycle;Max_cycle;Signal;HPM_P1;HPM_P2
2021/01/27 00:00:44;;;;;;;48.87;25.40;;;;;;;0.86;80.98;99901.45;1643681;85;26401;-81
2021/01/27 00:03:14;;;;;;;34.10;17.27;;;;;;;0.87;81.02;99909.25;1665308;85;25790;-80
2021/01/27 00:05:49;;;;;;;42.62;21.30;;;;;;;0.89;81.06;99898.07;1621718;85;27564;-81
2021/01/27 00:08:18;;;;;;;44.25;21.77;;;;;;;0.87;81.04;99901.34;1667620;84;25758;-81
2021/01/27 00:10:46;;;;;;;44.38;22.80;;;;;;;0.88;81.10;99901.66;1644009;84;25954;-81
2021/01/27 00:13:17;;;;;;;43.75;23.20;;;;;;;0.90;81.16;99904.18;1665429;85;25857;-81
2021/01/27 00:15:46;;;;;;;;;;;;;;;0.88;81.29;99904.30;1668341;84;26504;-81
2021/01/27 00:18:17;;;;;;;42.58;19.60;;;;;;;0.88;81.28;99906.94;1645024;85;27114;-81
2021/01/27 00:20:44;;;;;;;;;;;;;;;0.87;81.40;99907.92;1668420;85;25789;-81
2021/01/27 00:23:12;;;;;;;34.83;17.82;;;;;;;0.86;81.45;99900.98;1645731;85;26200;-80
2021/01/27 00:25:40;;;;;;;41.35;21.15;;;;;;;0.85;81.53;99912.98;1642659;85;25959;-81
2021/01/27 00:28:08;;;;;;;42.13;21.37;;;;;;;0.86;81.48;99908.05;1668023;83;26061;-81
2021/01/27 00:30:40;;;;;;;40.78;19.15;;;;;;;0.85;81.54;99906.40;1645306;83;27752;-81
2021/01/27 00:33:11;;;;;;;45.40;22.75;;;;;;;0.86;81.56;99902.30;1644327;85;25801;-80
2021/01/27 00:35:42;;;;;;;43.58;21.07;;;;;;;0.88;81.52;99902.17;1649042;85;25593;-81
2021/01/27 00:38:18;;;;;;;32.80;14.78;;;;;;;0.89;81.49;99904.66;1664425;85;25841;-81
2021/01/27 00:40:46;;;;;;;38.45;19.77;;;;;;;0.89;81.66;99899.87;1668223;83;26530;-81
2021/01/27 00:43:14;;;;;;;46.00;22.20;;;;;;;0.88;81.62;99898.22;1645331;85;27562;-81
2021/01/27 00:45:41;;;;;;;44.83;20.23;;;;;;;0.90;81.62;99900.23;1644411;85;25869;-81
2021/01/27 00:48:09;;;;;;;31.27;17.05;;;;;;;0.91;81.55;99899.23;1664725;85;26499;-81
2021/01/27 00:50:37;;;;;;;40.70;20.27;;;;;;;0.92;81.65;99900.91;1667645;85;25842;-82
2021/01/27 00:53:06;;;;;;;44.10;21.68;;;;;;;0.92;81.49;99897.77;1646902;85;25853;-81
2021/01/27 00:55:35;;;;;;;34.67;17.35;;;;;;;0.93;81.48;99895.48;1642219;85;28068;-81
2021/01/27 00:58:03;;;;;;;42.60;20.40;;;;;;;0.94;81.58;99895.01;1669333;84;25854;-82
2021/01/27 01:00:36;;;;;;;40.92;20.00;;;;;;;0.96;81.52;99889.10;1670000;84;25823;-81
2021/01/27 01:03:08;;;;;;;39.83;18.92;;;;;;;0.95;81.51;99893.54;1669626;83;25829;-81
2021/01/27 01:05:42;;;;;;;41.30;21.77;;;;;;;0.95;81.54;99893.54;1642241;85;26568;-80
2021/01/27 01:08:16;;;;;;;37.78;19.07;;;;;;;0.96;81.52;99889.94;1674611;83;28726;-81
2021/01/27 01:10:48;;;;;;;36.85;18.32;;;;;;;0.96;81.54;99889.10;1671850;83;25877;-81
2021/01/27 01:13:21;;;;;;;26.65;14.18;;;;;;;0.95;81.56;99886.11;1678936;84;25919;-80
2021/01/27 01:15:49;;;;;;;40.10;19.42;;;;;;;0.95;81.62;99886.95;1659759;84;25870;-80
2021/01/27 01:18:16;;;;;;;34.67;17.17;;;;;;;0.94;81.63;99887.91;1680299;84;25372;-80
2021/01/27 01:20:43;;;;;;;34.48;18.32;;;;;;;0.95;81.58;99891.38;1672295;83;27549;-81
2021/01/27 01:23:11;;;;;;;36.55;19.15;;;;;;;0.94;81.60;99891.86;1661917;84;26177;-80
2021/01/27 01:25:39;;;;;;;36.30;18.45;;;;;;;0.93;81.69;99890.22;1657683;85;25433;-81
2021/01/27 01:28:07;;;;;;;36.05;17.98;;;;;;;0.94;81.69;99887.09;1681867;84;26479;-81
2021/01/27 01:30:39;;;;;;;38.67;19.20;;;;;;;0.96;81.74;99898.33;1572256;86;25788;-81
2021/01/27 01:33:15;;;;;;;34.18;18.07;;;;;;;0.96;81.66;99893.06;1615924;87;27540;-81
2021/01/27 01:35:44;;;;;;;33.13;18.30;;;;;;;0.96;81.70;99893.06;1614975;86;25785;-81
2021/01/27 01:38:12;;;;;;;41.28;20.70;;;;;;;0.98;81.79;99899.02;1621613;86;26039;-81
2021/01/27 01:40:47;;;;;;;39.03;19.85;;;;;;;0.99;81.71;99894.08;1573775;87;25787;-81
2021/01/27 01:43:30;;;;;;;39.75;21.00;;;;;;;0.99;81.67;99894.08;1638486;86;25439;-80
2021/01/27 01:46:21;;;;;;;36.45;19.35;;;;;;;0.99;81.69;99896.23;1603575;87;27375;-80
2021/01/27 01:49:02;;;;;;;36.93;18.80;;;;;;;1.00;81.69;99895.75;1646178;85;26542;-80
2021/01/27 01:51:41;;;;;;;32.08;17.30;;;;;;;1.01;81.69;99900.03;1638620;86;25834;-80
2021/01/27 01:54:29;;;;;;;39.53;18.80;;;;;;;1.01;81.63;99901.35;1669303;84;25675;-81
2021/01/27 01:57:01;;;;;;;36.40;18.17;;;;;;;1.02;81.65;99900.39;1682909;84;25940;-81
2021/01/27 01:59:32;;;;;;;33.85;18.20;;;;;;;1.01;81.61;99898.23;1664381;84;27106;-80
2021/01/27 02:02:06;;;;;;;34.92;18.95;;;;;;;1.02;81.48;99892.00;1683316;84;26193;-81
2021/01/27 02:04:48;;;;;;;32.10;14.93;;;;;;;1.04;81.48;99895.80;1689162;83;25921;-80
2021/01/27 02:07:15;;;;;;;33.63;18.27;;;;;;;1.04;81.31;99902.40;1667754;84;26594;-81
2021/01/27 02:09:43;;;;;;;32.03;17.92;;;;;;;1.02;81.25;99905.19;1660890;84;26019;-80
2021/01/27 02:12:52;;;;;;;32.93;17.87;;;;;;;1.03;81.18;99896.77;1685510;83;27546;-81
2021/01/27 02:15:43;;;;;;;29.65;16.02;;;;;;;1.04;81.08;99893.17;1686952;83;25940;-80
2021/01/27 02:18:31;;;;;;;27.67;15.05;;;;;;;1.05;81.10;99898.80;1668969;84;35051;-80
2021/01/27 02:21:12;;;;;;;34.53;15.48;;;;;;;1.07;81.02;99899.48;1674040;84;26268;-80
2021/01/27 02:24:24;;;;;;;31.37;15.85;;;;;;;1.06;80.83;99893.85;1675278;83;25915;-80
2021/01/27 02:27:12;;;;;;;25.60;14.53;;;;;;;1.06;80.95;99899.12;1663342;84;27001;-80
2021/01/27 02:30:12;;;;;;;27.15;14.58;;;;;;;1.07;80.73;99907.40;1657012;84;25961;-81
2021/01/27 02:33:04;;;;;;;30.02;15.38;;;;;;;1.06;80.81;99909.20;1661959;84;25417;-80
2021/01/27 02:35:45;;;;;;;29.02;15.45;;;;;;;1.06;80.79;99907.04;1655300;85;25545;-80
2021/01/27 02:38:24;;;;;;;29.35;15.50;;;;;;;1.05;80.66;99906.20;1654538;83;26167;-80
2021/01/27 02:41:15;;;;;;;24.98;13.03;;;;;;;1.05;80.68;99906.20;1678822;84;28580;-80
2021/01/27 02:43:44;;;;;;;;;;;;;;;1.07;80.68;99906.89;1657668;84;25845;-81
2021/01/27 02:46:29;;;;;;;23.80;13.55;;;;;;;1.08;80.55;99904.61;1628246;84;25461;-80
2021/01/27 02:49:13;;;;;;;32.70;15.68;;;;;;;1.07;80.49;99913.48;1679545;83;25850;-81
2021/01/27 02:52:13;;;;;;;23.22;13.72;;;;;;;1.08;80.51;99909.05;1651455;84;25904;-80
2021/01/27 02:55:10;;;;;;;25.32;14.00;;;;;;;1.10;80.47;99908.41;1669116;84;28819;-80
2021/01/27 02:57:42;;;;;;;25.88;13.65;;;;;;;1.10;80.25;99909.25;1678647;84;25487;-80
2021/01/27 03:00:15;;;;;;;24.57;13.95;;;;;;;1.10;80.34;99906.61;1673121;84;26130;-80
2021/01/27 03:02:51;;;;;;;27.90;12.88;;;;;;;1.12;80.23;99907.30;1667349;84;25858;-81
2021/01/27 03:05:43;;;;;;;22.65;11.93;;;;;;;1.15;80.24;99907.51;1656594;85;26016;-80
2021/01/27 03:08:26;;;;;;;23.75;11.43;;;;;;;1.14;79.95;99907.98;1686960;84;27537;-80
2021/01/27 03:11:10;;;;;;;28.83;15.03;;;;;;;1.13;79.95;99902.38;1652887;85;26417;-81
2021/01/27 03:13:39;;;;;;;21.65;12.93;;;;;;;1.13;79.86;99906.34;1660054;84;25888;-81
2021/01/27 03:16:17;;;;;;;21.82;12.05;;;;;;;1.13;80.02;99911.62;1660782;84;25864;-81
2021/01/27 03:18:56;;;;;;;21.02;11.57;;;;;;;1.13;79.65;99916.05;1661106;84;25850;-80
2021/01/27 03:21:28;;;;;;;22.60;12.70;;;;;;;1.11;79.80;99920.13;1662856;84;27545;-80
2021/01/27 03:24:04;;;;;;;17.75;10.98;;;;;;;1.12;79.86;99924.92;1659803;84;25962;-81
2021/01/27 03:26:46;;;;;;;20.68;11.83;;;;;;;1.12;79.65;99926.24;1677213;84;26297;-81
2021/01/27 03:29:58;;;;;;;21.20;10.50;;;;;;;1.12;79.54;99922.28;1688070;83;26478;-80
2021/01/27 03:32:43;;;;;;;18.10;10.28;;;;;;;1.12;79.38;99928.88;1683785;83;26091;-80
2021/01/27 03:35:32;;;;;;;23.02;11.03;;;;;;;1.11;79.52;99922.77;1688019;83;27554;-80
2021/01/27 03:38:14;;;;;;;24.52;12.40;;;;;;;1.12;79.39;99927.56;1676327;84;25953;-80
2021/01/27 03:40:45;;;;;;;19.55;10.53;;;;;;;1.12;79.45;99930.20;1665998;84;26149;-80
2021/01/27 03:43:29;;;;;;;22.40;12.95;;;;;;;1.12;79.39;99920.97;1628727;86;25796;-80
2021/01/27 03:46:17;;;;;;;23.73;11.10;;;;;;;1.14;79.34;99922.49;1584240;87;26230;-81
2021/01/27 03:48:56;;;;;;;20.57;10.00;;;;;;;1.14;79.58;99931.73;1583597;87;27372;-79
2021/01/27 03:51:27;;;;;;;21.93;12.00;;;;;;;1.15;79.20;99929.92;1621549;87;25865;-80
2021/01/27 03:53:59;;;;;;;19.57;11.73;;;;;;;1.14;79.48;99930.88;1646304;85;25808;-80
2021/01/27 03:56:44;;;;;;;19.10;10.30;;;;;;;1.17;79.57;99937.20;1607735;87;26538;-80
2021/01/27 03:59:12;;;;;;;20.32;10.68;;;;;;;1.19;79.34;99941.84;1637957;85;26661;-80
2021/01/27 04:01:53;;;;;;;15.90;9.68;;;;;;;1.18;79.22;99946.28;1581625;87;27099;-80
2021/01/27 04:04:22;;;;;;;17.62;9.23;;;;;;;1.17;79.23;99949.91;1616347;86;26055;-80
2021/01/27 04:06:50;;;;;;;16.17;9.35;;;;;;;1.15;79.28;99947.07;1597532;88;25987;-80
2021/01/27 04:09:17;;;;;;;20.10;11.15;;;;;;;1.16;79.20;99951.35;1650885;85;26513;-80
2021/01/27 04:11:45;;;;;;;15.32;8.70;;;;;;;1.15;79.27;99954.50;1606830;87;25840;-80
2021/01/27 04:14:13;;;;;;;21.07;9.95;;;;;;;1.15;79.13;99954.98;1628012;87;27562;-80
2021/01/27 04:16:42;;;;;;;17.25;9.35;;;;;;;1.12;79.17;99948.18;1612896;86;26151;-80
2021/01/27 04:19:10;;;;;;;17.60;9.35;;;;;;;1.14;79.26;99946.71;1639225;86;26103;-79
2021/01/27 04:21:37;;;;;;;18.30;9.18;;;;;;;1.13;79.21;99952.98;1652649;85;25895;-80
2021/01/27 04:24:05;;;;;;;17.77;9.75;;;;;;;1.11;79.29;99954.41;1647117;85;26149;-80
2021/01/27 04:26:35;;;;;;;16.90;9.85;;;;;;;1.10;79.30;99948.81;1610210;86;28490;-80
2021/01/27 04:29:04;;;;;;;15.65;9.70;;;;;;;1.12;79.34;99947.34;1641988;85;26347;-80
2021/01/27 04:31:32;;;;;;;20.60;9.58;;;;;;;1.11;79.10;99950.97;1650821;85;25932;-80
2021/01/27 04:34:00;;;;;;;17.05;8.98;;;;;;;1.11;79.26;99949.65;1636824;86;25800;-80
2021/01/27 04:36:29;;;;;;;15.05;8.08;;;;;;;1.10;79.20;99950.13;1616285;86;26113;-80
2021/01/27 04:38:56;;;;;;;17.02;8.58;;;;;;;1.11;79.09;99949.14;1612990;88;27612;-80
2021/01/27 04:41:23;;;;;;;14.35;7.30;;;;;;;1.10;78.84;99945.34;1614901;86;26259;-80
2021/01/27 04:43:53;;;;;;;14.15;7.25;;;;;;;1.10;78.67;99946.17;1627750;87;25925;-79
2021/01/27 04:46:32;;;;;;;12.47;6.65;;;;;;;1.11;78.81;99946.50;1610655;87;25732;-79
2021/01/27 04:49:22;;;;;;;14.93;6.50;;;;;;;1.11;78.40;99940.42;1614389;86;25882;-79
2021/01/27 04:52:13;;;;;;;12.33;6.13;;;;;;;1.09;78.28;99948.45;1658466;86;27359;-81
2021/01/27 04:55:20;;;;;;;12.00;6.47;;;;;;;1.09;78.13;99945.01;1633443;85;26135;-80
2021/01/27 04:58:15;;;;;;;13.22;5.80;;;;;;;1.08;78.39;99948.60;1635618;86;25775;-80
2021/01/27 05:01:17;;;;;;;13.18;5.47;;;;;;;1.05;78.20;99952.86;1619579;86;25949;-80
2021/01/27 05:04:04;;;;;;;9.98;5.08;;;;;;;1.05;78.25;99952.86;1661722;85;26005;-79
2021/01/27 05:06:34;;;;;;;9.43;5.30;;;;;;;1.04;78.09;99951.19;1665793;85;27567;-80
2021/01/27 05:09:16;;;;;;;8.90;4.78;;;;;;;1.06;78.18;99947.91;1606795;87;26437;-79
2021/01/27 05:11:53;;;;;;;10.38;5.12;;;;;;;1.12;78.01;99946.02;1801316;79;25746;-80
2021/01/27 05:14:21;;;;;;;10.95;4.28;;;;;;;1.07;78.03;99948.27;1736442;80;25841;-81
2021/01/27 05:16:51;;;;;;;8.93;4.85;;;;;;;1.06;77.94;99947.44;1751525;80;27475;-81
2021/01/27 05:19:19;;;;;;;11.05;5.42;;;;;;;1.05;77.78;99945.76;1708589;82;25945;-81
2021/01/27 05:21:56;;;;;;;7.78;4.92;;;;;;;1.05;78.00;99948.91;1707861;82;25419;-80
2021/01/27 05:24:24;;;;;;;8.15;4.50;;;;;;;1.07;77.91;99945.64;1705244;82;26288;-81
2021/01/27 05:27:05;;;;;;;9.25;3.50;;;;;;;1.05;77.62;99960.77;1740275;80;25811;-80
2021/01/27 05:29:45;;;;;;;9.95;4.33;;;;;;;1.08;77.65;99957.35;1813253;77;25697;-81
2021/01/27 05:32:19;;;;;;;6.87;3.37;;;;;;;1.02;77.69;99959.72;1753079;80;25775;-81
2021/01/27 05:34:56;;;;;;;6.65;3.90;;;;;;;1.00;77.37;99957.23;1756372;80;27614;-81
2021/01/27 05:37:34;;;;;;;6.17;4.03;;;;;;;1.00;77.56;99960.36;1727190;80;26249;-80
2021/01/27 05:40:15;;;;;;;7.47;3.70;;;;;;;1.01;77.65;99971.23;1747521;80;25820;-81
2021/01/27 05:42:44;;;;;;;7.15;3.65;;;;;;;1.02;77.35;99965.84;1738652;80;25838;-81
2021/01/27 05:45:32;;;;;;;6.40;2.90;;;;;;;1.01;77.19;99972.07;1752581;81;25913;-80
2021/01/27 05:48:34;;;;;;;7.42;3.20;;;;;;;1.02;77.25;99971.59;1748106;80;27534;-81
2021/01/27 05:51:12;;;;;;;7.72;4.17;;;;;;;1.04;77.14;99981.52;1730139;80;26286;-80
2021/01/27 05:53:40;;;;;;;5.40;3.77;;;;;;;1.04;76.92;99978.87;1751501;80;26310;-80
2021/01/27 05:56:20;;;;;;;4.85;3.65;;;;;;;1.04;76.94;99978.39;1760189;80;26411;-81
2021/01/27 05:59:01;;;;;;;8.88;4.80;;;;;;;1.03;77.07;99979.83;1750957;80;25863;-80
2021/01/27 06:01:46;;;;;;;;;;;;;;;1.06;76.75;99984.84;1719425;80;28090;-80
2021/01/27 06:04:24;;;;;;;10.03;6.83;;;;;;;1.05;76.12;99977.41;1738753;80;26558;-81
2021/01/27 06:07:00;;;;;;;8.38;3.80;;;;;;;1.05;76.80;99981.88;1739355;80;25459;-81
2021/01/27 06:09:44;;;;;;;3.83;2.90;;;;;;;1.07;76.88;99981.24;1757022;80;26022;-81
2021/01/27 06:12:22;;;;;;;6.28;4.28;;;;;;;1.08;76.86;99982.89;1761434;80;26463;-80
2021/01/27 06:15:10;;;;;;;5.45;3.62;;;;;;;1.10;76.94;99978.30;1738393;81;28300;-80
2021/01/27 06:17:47;;;;;;;6.55;4.08;;;;;;;1.09;76.57;99972.19;1737708;80;26363;-80
2021/01/27 06:20:33;;;;;;;5.33;3.90;;;;;;;1.07;76.69;99971.50;1702138;81;25844;-80
2021/01/27 06:23:29;;;;;;;6.65;3.90;;;;;;;1.10;76.74;99973.03;1712375;81;25721;-80
2021/01/27 06:26:23;;;;;;;6.50;3.35;;;;;;;1.11;76.47;99977.34;1713928;81;25862;-80
2021/01/27 06:29:11;;;;;;;6.03;3.25;;;;;;;1.10;76.39;99982.26;1659926;82;28424;-81
2021/01/27 06:31:56;;;;;;;4.67;3.10;;;;;;;1.08;76.36;99983.73;1707926;82;26088;-80
2021/01/27 06:34:32;;;;;;;7.37;3.52;;;;;;;;;;1703468;82;25815;-80
2021/01/27 06:37:46;;;;;;;5.78;3.20;;;;;;;1.08;76.29;99981.09;1711601;82;25887;-80
2021/01/27 06:40:50;;;;;;;9.58;4.22;;;;;;;1.07;75.79;99979.41;1716253;82;26408;-80
2021/01/27 06:43:46;;;;;;;7.03;3.33;;;;;;;1.07;76.16;99991.28;1730088;82;28467;-79
2021/01/27 06:46:50;;;;;;;7.95;3.75;;;;;;;1.07;76.14;99989.16;1690204;84;26580;-79
2021/01/27 06:49:44;;;;;;;5.47;3.40;;;;;;;1.06;76.10;99997.55;1683554;83;25836;-80
2021/01/27 06:52:58;;;;;;;6.20;3.77;;;;;;;1.05;75.81;100001.65;1680721;82;26197;-80
2021/01/27 06:55:51;;;;;;;4.85;2.72;;;;;;;1.06;76.09;100000.66;1697733;82;25898;-81
2021/01/27 06:58:48;;;;;;;7.72;3.15;;;;;;;1.07;75.48;100004.47;1682786;84;27346;-80
2021/01/27 07:01:35;;;;;;;4.72;2.67;;;;;;;1.06;75.64;100009.89;1719777;82;25731;-79
2021/01/27 07:04:28;;;;;;;8.45;3.85;;;;;;;1.05;75.49;100008.24;1690093;82;25842;-80
2021/01/27 07:07:12;;;;;;;7.70;4.12;;;;;;;1.05;75.03;100010.37;1683806;84;26034;-80
2021/01/27 07:10:15;;;;;;;6.30;3.85;;;;;;;1.10;75.27;100009.95;1811642;77;26300;-81
2021/01/27 07:12:46;;;;;;;5.95;3.75;;;;;;;1.07;75.53;100014.20;1762378;79;25859;-79
2021/01/27 07:15:36;;;;;;;10.00;5.20;;;;;;;1.06;75.27;100015.16;1755659;79;27103;-80
2021/01/27 07:18:35;;;;;;;9.75;5.50;;;;;;;1.08;75.62;100020.65;1726669;80;25797;-82
2021/01/27 07:21:26;;;;;;;10.68;5.65;;;;;;;1.08;75.86;100014.53;1650495;83;25447;-81
2021/01/27 07:24:11;;;;;;;12.82;7.87;;;;;;;1.07;76.28;100018.97;1701517;83;25972;-80
2021/01/27 07:26:55;;;;;;;19.20;11.97;;;;;;;1.07;76.60;100020.80;1707256;83;26065;-79
2021/01/27 07:29:27;;;;;;;18.07;10.03;;;;;;;1.07;76.75;100022.12;1703507;83;27555;-79
2021/01/27 07:32:33;;;;;;;18.90;9.10;;;;;;;1.10;76.92;100020.50;1818927;77;25712;-80
2021/01/27 07:35:15;;;;;;;21.70;9.78;;;;;;;1.04;77.05;100023.70;1716758;81;26041;-80
2021/01/27 07:38:16;;;;;;;15.10;7.78;;;;;;;1.01;77.34;100020.86;1732361;81;26727;-80
2021/01/27 07:40:48;;;;;;;12.80;7.37;;;;;;;1.01;77.42;100019.53;1711092;81;26043;-80
2021/01/27 07:43:27;;;;;;;14.25;7.60;;;;;;;1.00;77.45;100019.20;1721216;81;25409;-80
2021/01/27 07:45:56;;;;;;;18.17;9.03;;;;;;;0.98;77.38;100018.52;1767334;80;25777;-80
2021/01/27 07:48:41;;;;;;;13.60;8.13;;;;;;;1.00;77.43;100028.91;1713951;81;25389;-80
2021/01/27 07:51:17;;;;;;;17.40;7.12;;;;;;;1.03;77.46;100025.50;1731839;80;28273;-80
2021/01/27 07:54:08;;;;;;;12.40;7.40;;;;;;;1.01;77.47;100025.29;1729870;80;25908;-80
2021/01/27 07:56:53;;;;;;;12.82;7.15;;;;;;;1.04;77.48;100025.86;1767330;80;25550;-81
2021/01/27 07:59:42;;;;;;;12.18;6.10;;;;;;;1.04;77.28;100028.50;1768474;80;26418;-80
2021/01/27 08:02:15;;;;;;;11.12;6.37;;;;;;;1.07;77.30;100033.47;1731970;80;25855;-80
2021/01/27 08:04:55;;;;;;;11.30;5.70;;;;;;;1.09;77.27;100031.53;1737093;80;27542;-81
2021/01/27 08:07:32;;;;;;;13.03;7.13;;;;;;;1.13;77.49;100026.83;1713283;80;25797;-80
2021/01/27 08:10:14;;;;;;;12.68;7.15;;;;;;;1.16;77.11;100031.80;1739197;81;26022;-80
2021/01/27 08:12:55;;;;;;;11.12;6.03;;;;;;;1.16;77.20;100035.28;1742491;81;25376;-81
2021/01/27 08:15:27;;;;;;;11.63;5.35;;;;;;;1.15;76.78;100034.11;1722385;80;26018;-80
2021/01/27 08:18:18;;;;;;;10.00;5.40;;;;;;;1.16;76.31;100042.35;1725230;81;27261;-80
2021/01/27 08:20:49;;;;;;;8.65;5.25;;;;;;;1.15;76.54;100044.66;1738789;81;26735;-81
2021/01/27 08:23:34;;;;;;;9.95;5.53;;;;;;;1.16;76.36;100044.98;1717008;81;25395;-81
2021/01/27 08:26:05;;;;;;;13.00;7.08;;;;;;;1.18;76.37;100041.72;1714766;82;26811;-80
2021/01/27 08:28:44;;;;;;;16.27;10.32;;;;;;;1.18;76.34;100045.20;1712223;81;25963;-80
2021/01/27 08:31:16;;;;;;;12.73;6.87;;;;;;;1.18;76.61;100047.00;1750924;81;27747;-80
2021/01/27 08:33:53;;;;;;;9.58;5.78;;;;;;;1.19;76.69;100043.41;1752138;81;26002;-80
2021/01/27 08:36:35;;;;;;;11.75;5.97;;;;;;;1.21;76.70;100046.73;1716370;82;25765;-80
2021/01/27 08:39:10;;;;;;;10.03;5.43;;;;;;;1.21;76.38;100043.61;1714860;82;25700;-79
2021/01/27 08:42:00;;;;;;;11.68;6.00;;;;;;;1.21;76.47;100046.25;1746258;81;31461;-81
2021/01/27 08:44:40;;;;;;;7.00;4.70;;;;;;;1.28;76.05;100047.33;1789231;78;25785;-78
2021/01/27 08:47:35;;;;;;;6.15;4.05;;;;;;;1.21;75.89;100040.98;1733925;80;26062;-80
2021/01/27 08:50:04;;;;;;;10.88;5.15;;;;;;;1.20;76.21;100051.64;1750037;80;27598;-78
2021/01/27 08:52:40;;;;;;;9.10;4.92;;;;;;;1.20;76.29;100060.40;1700645;80;25958;-77
2021/01/27 08:55:36;;;;;;;18.98;10.45;;;;;;;1.21;76.23;100063.40;1734760;80;26466;-80
2021/01/27 08:58:21;;;;;;;9.58;6.10;;;;;;;1.24;76.26;100059.66;1698417;81;25870;-78
2021/01/27 09:00:51;;;;;;;13.18;7.42;;;;;;;1.23;76.13;100065.41;1737051;80;25732;-78
2021/01/27 09:03:49;;;;;;;14.75;6.83;;;;;;;1.22;76.07;100066.88;1708923;80;28471;-78
2021/01/27 09:06:41;;;;;;;11.28;5.87;;;;;;;1.23;76.25;100077.75;1750349;81;26180;-78
2021/01/27 09:09:16;;;;;;;9.25;5.22;;;;;;;1.23;76.19;100075.12;1739094;80;25832;-79
2021/01/27 09:11:45;;;;;;;8.80;4.97;;;;;;;1.24;75.92;100077.61;1720104;81;26263;-79
2021/01/27 09:14:15;;;;;;;9.73;5.33;;;;;;;1.24;76.13;100078.12;1681520;80;26091;-77
2021/01/27 09:16:44;;;;;;;5.85;3.85;;;;;;;1.24;76.14;100080.75;1693635;81;28716;-79
2021/01/27 09:19:19;;;;;;;9.98;4.33;;;;;;;1.24;75.94;100080.24;1729328;81;25849;-78
2021/01/27 09:22:09;;;;;;;9.00;4.17;;;;;;;1.24;76.08;100075.48;1764060;80;25791;-77
2021/01/27 09:24:51;;;;;;;6.58;4.30;;;;;;;1.26;76.21;100074.34;1751325;80;25842;-76
2021/01/27 09:27:29;;;;;;;7.53;2.77;;;;;;;1.29;76.01;100079.83;1745326;80;25859;-76
2021/01/27 09:30:11;;;;;;;9.03;6.28;;;;;;;1.29;75.61;100082.47;1730285;80;27287;-77
2021/01/27 09:32:41;;;;;;;9.03;5.08;;;;;;;1.30;75.98;100087.63;1765408;80;25743;-78
2021/01/27 09:35:23;;;;;;;7.00;4.40;;;;;;;1.32;75.73;100087.00;1741877;81;26638;-85
2021/01/27 09:38:03;;;;;;;6.65;3.50;;;;;;;1.35;75.56;100077.94;1717524;81;25840;-81
2021/01/27 09:40:53;;;;;;;7.22;3.95;;;;;;;1.36;75.62;100083.58;1733540;80;25362;-79
2021/01/27 09:43:22;;;;;;;9.28;4.28;;;;;;;1.38;75.63;100083.79;1752213;78;27540;-80
2021/01/27 09:45:53;;;;;;;7.20;3.22;;;;;;;1.39;75.64;100089.91;1716521;81;26607;-79
2021/01/27 09:48:25;;;;;;;;;;;;;;;1.38;75.12;100091.70;1714238;79;25883;-81
2021/01/27 09:50:58;;;;;;;10.00;4.80;;;;;;;1.36;75.08;100092.34;1744180;79;25797;-80
2021/01/27 09:53:37;;;;;;;5.75;3.77;;;;;;;1.36;74.98;100083.58;1741997;81;25850;-80
2021/01/27 09:56:08;;;;;;;6.35;3.90;;;;;;;1.38;75.29;100091.70;1723546;79;27541;-82
2021/01/27 09:58:40;;;;;;;5.37;3.62;;;;;;;1.40;75.04;100088.92;1748144;79;26487;-83
2021/01/27 10:01:13;;;;;;;6.58;3.42;;;;;;;1.41;75.20;100090.09;1743372;81;25818;-82
2021/01/27 10:03:56;;;;;;;4.62;3.40;;;;;;;1.44;75.18;100081.06;1751320;79;26671;-83
2021/01/27 10:06:47;;;;;;;7.03;3.33;;;;;;;1.46;74.84;100085.71;1709927;81;25799;-81
2021/01/27 10:09:30;;;;;;;4.60;3.62;;;;;;;1.48;74.88;100092.52;1742355;80;27632;-83
2021/01/27 10:12:08;;;;;;;7.85;3.95;;;;;;;1.48;74.65;100093.84;1731094;82;25765;-85
2021/01/27 10:14:41;;;;;;;6.75;3.40;;;;;;;1.49;74.00;100089.40;1735585;79;25801;-84
2021/01/27 10:17:12;;;;;;;7.78;4.58;;;;;;;1.48;74.51;100087.23;1767889;79;26273;-85
2021/01/27 10:19:51;;;;;;;6.30;3.42;;;;;;;1.49;74.56;100088.92;1743650;81;25826;-84
2021/01/27 10:22:36;;;;;;;5.35;3.72;;;;;;;1.52;74.69;100089.09;1736827;81;27437;-84
2021/01/27 10:25:25;;;;;;;7.62;3.52;;;;;;;1.58;74.65;100085.08;1734824;80;25896;-85
2021/01/27 10:28:09;;;;;;;7.55;4.40;;;;;;;1.61;74.14;100089.57;1731715;82;26420;-85
2021/01/27 10:30:46;;;;;;;10.48;4.83;;;;;;;1.63;74.56;100091.58;1745980;81;26433;-84
2021/01/27 10:33:47;;;;;;;20.57;7.33;;;;;;;1.67;74.31;100089.52;1790672;79;25952;-85
2021/01/27 10:36:42;;;;;;;9.58;4.92;;;;;;;1.71;74.30;100093.02;1784577;79;28529;-85
2021/01/27 10:39:26;;;;;;;10.72;4.87;;;;;;;1.72;73.98;100092.53;1748633;79;25820;-85
2021/01/27 10:42:09;;;;;;;7.95;4.42;;;;;;;1.69;73.69;100094.16;1727935;78;25553;-84
2021/01/27 10:44:40;;;;;;;7.78;3.72;;;;;;;1.70;74.15;100096.65;1681311;85;26170;-84
2021/01/27 10:47:19;;;;;;;9.18;3.42;;;;;;;1.69;74.13;100097.61;1670305;84;25926;-85
2021/01/27 10:49:48;;;;;;;7.33;3.75;;;;;;;1.69;73.35;100092.33;1661982;84;28464;-86
2021/01/27 10:52:23;;;;;;;7.70;4.30;;;;;;;1.70;73.28;100097.13;1647477;84;25874;-85
2021/01/27 10:55:02;;;;;;;6.40;4.05;;;;;;;1.70;73.43;100093.17;1650216;84;26409;-84
2021/01/27 10:57:32;;;;;;;5.83;3.20;;;;;;;1.74;73.95;100099.83;1678797;83;26102;-82
2021/01/27 11:00:01;;;;;;;7.08;4.03;;;;;;;1.74;73.01;100090.59;1711694;83;25900;-83
2021/01/27 11:02:31;;;;;;;6.75;3.67;;;;;;;1.74;72.94;100094.55;1701042;83;27527;-82
2021/01/27 11:04:59;;;;;;;9.37;5.43;;;;;;;1.77;73.14;100090.31;1630557;86;25810;-84
2021/01/27 11:07:27;;;;;;;7.92;3.40;;;;;;;1.82;73.78;100092.86;1612715;86;25837;-83
2021/01/27 11:09:55;;;;;;;6.67;3.60;;;;;;;1.88;73.00;100092.78;1648243;85;26125;-84
2021/01/27 11:12:22;;;;;;;10.80;4.42;;;;;;;1.87;73.34;100094.59;1666438;84;25823;-80
2021/01/27 11:14:51;;;;;;;9.53;4.08;;;;;;;1.89;72.96;100097.91;1650851;86;27316;-81
2021/01/27 11:17:21;;;;;;;9.10;4.58;;;;;;;1.91;73.06;100099.92;1657352;86;26736;-80
2021/01/27 11:19:48;;;;;;;8.58;3.95;;;;;;;1.90;72.99;100097.44;1654055;84;25501;-81
2021/01/27 11:22:16;;;;;;;8.60;4.17;;;;;;;1.90;72.98;100101.40;1642888;85;25601;-83
2021/01/27 11:24:45;;;;;;;7.65;4.37;;;;;;;1.92;72.71;100099.44;1644979;84;25778;-82
2021/01/27 11:27:12;;;;;;;6.40;4.60;;;;;;;1.92;73.18;100107.36;1640709;84;27552;-80
2021/01/27 11:29:42;;;;;;;6.45;3.70;;;;;;;1.92;72.57;100099.44;1623819;84;26676;-80
2021/01/27 11:32:10;;;;;;;6.25;3.40;;;;;;;1.90;72.03;100101.40;1652417;86;25493;-82
2021/01/27 11:34:39;;;;;;;6.80;4.15;;;;;;;1.89;72.30;100103.20;1652144;84;25940;-84
2021/01/27 11:37:06;;;;;;;10.60;4.92;;;;;;;1.88;72.65;100102.03;1611224;84;26655;-81
2021/01/27 11:39:36;;;;;;;8.18;4.33;;;;;;;1.90;72.78;100108.00;1659762;86;27548;-85
2021/01/27 11:42:03;;;;;;;8.70;3.98;;;;;;;1.95;72.40;100106.58;1619890;85;25898;-84
2021/01/27 11:44:32;;;;;;;11.10;5.47;;;;;;;1.97;72.69;100106.42;1617001;87;26175;-82
2021/01/27 11:47:01;;;;;;;7.80;4.47;;;;;;;2.02;72.97;100109.48;1605163;88;25824;-80
2021/01/27 11:49:30;;;;;;;10.58;5.53;;;;;;;2.03;72.37;100112.48;1617755;87;26390;-80
2021/01/27 11:52:00;;;;;;;14.00;5.22;;;;;;;2.01;72.57;100119.20;1619112;87;28564;-81
2021/01/27 11:54:30;;;;;;;10.05;5.60;;;;;;;2.03;72.87;100126.49;1632484;87;32736;-81
2021/01/27 11:56:58;;;;;;;12.55;6.55;;;;;;;2.05;72.64;100117.94;1619018;87;25918;-80
2021/01/27 11:59:25;;;;;;;9.13;4.80;;;;;;;2.07;72.85;100125.73;1614233;87;26398;-81
2021/01/27 12:01:53;;;;;;;9.28;5.20;;;;;;;2.08;72.86;100119.46;1619128;87;25420;-80
2021/01/27 12:04:21;;;;;;;8.15;5.30;;;;;;;2.07;72.70;100113.85;1619512;87;27102;-81
2021/01/27 12:06:49;;;;;;;8.88;5.20;;;;;;;2.08;72.77;100120.78;1598755;86;25979;-82
2021/01/27 12:09:16;;;;;;;6.05;4.28;;;;;;;2.08;72.60;100123.42;1620040;87;26043;-80
2021/01/27 12:11:44;;;;;;;9.60;5.35;;;;;;;2.10;72.57;100116.19;1619948;87;26186;-80
2021/01/27 12:14:12;;;;;;;10.30;4.87;;;;;;;2.11;72.45;100117.38;1619436;87;25970;-80
2021/01/27 12:16:39;;;;;;;14.95;5.95;;;;;;;2.15;72.64;100126.69;1616755;87;28616;-80
2021/01/27 12:19:06;;;;;;;7.17;4.70;;;;;;;2.17;72.71;100127.37;1596309;87;26758;-80
2021/01/27 12:21:36;;;;;;;12.78;4.92;;;;;;;2.19;72.64;100120.61;1619515;87;25824;-81